sensor_id;sensor_type;location;lat;lon;timestamp;temperature;humidity
37518;DHT22;23366;52.498;13.446;2022-08-02T00:02:18;20.40;99.90
37518;DHT22;23366;52.498;13.446;2022-08-02T00:04:45;20.40;99.90
37518;DHT22;23366;52.498;13.446;2022-08-02T00:07:11;20.50;99.90
37518;DHT22;23366;52.498;13.446;2022-08-02T00:09:37;20.50;99.90
37518;DHT22;23366;52.498;13.446;2022-08-02T00:12:03;20.60;99.90
37518;DHT22;23366;52.498;13.446;2022-08-02T00:14:28;20.60;99.90
37518;DHT22;23366;52.498;13.446;2022-08-02T00:16:55;20.50;99.90
37518;DHT22;23366;52.498;13.446;2022-08-02T00:19:21;20.30;99.90
37518;DHT22;23366;52.498;13.446;2022-08-02T00:21:47;20.40;99.90
37518;DHT22;23366;52.498;13.446;2022-08-02T00:24:12;20.30;99.90
37518;DHT22;23366;52.498;13.446;2022-08-02T00:26:38;20.30;99.90
37518;DHT22;23366;52.498;13.446;2022-08-02T00:29:04;20.20;99.90
37518;DHT22;23366;52.498;13.446;2022-08-02T00:31:30;20.20;99.90
37518;DHT22;23366;52.498;13.446;2022-08-02T00:33:56;20.30;99.90
37518;DHT22;23366;52.498;13.446;2022-08-02T00:36:21;20.30;99.90
37518;DHT22;23366;52.498;13.446;2022-08-02T00:38:47;20.30;99.90
37518;DHT22;23366;52.498;13.446;2022-08-02T00:41:18;20.30;99.90
37518;DHT22;23366;52.498;13.446;2022-08-02T00:43:46;20.30;99.90
37518;DHT22;23366;52.498;13.446;2022-08-02T00:46:13;20.40;99.90
37518;DHT22;23366;52.498;13.446;2022-08-02T00:48:39;20.40;99.90
37518;DHT22;23366;52.498;13.446;2022-08-02T00:51:04;20.30;99.90
37518;DHT22;23366;52.498;13.446;2022-08-02T00:53:31;20.30;99.90
37518;DHT22;23366;52.498;13.446;2022-08-02T00:55:57;20.30;99.90
37518;DHT22;23366;52.498;13.446;2022-08-02T00:58:23;20.30;99.90
37518;DHT22;23366;52.498;13.446;2022-08-02T01:00:48;20.20;99.90
37518;DHT22;23366;52.498;13.446;2022-08-02T01:03:14;20.20;99.90
37518;DHT22;23366;52.498;13.446;2022-08-02T01:05:41;20.20;99.90
37518;DHT22;23366;52.498;13.446;2022-08-02T01:08:06;20.10;99.90
37518;DHT22;23366;52.498;13.446;2022-08-02T01:10:32;20.20;99.90
37518;DHT22;23366;52.498;13.446;2022-08-02T01:12:58;20.20;99.90
37518;DHT22;23366;52.498;13.446;2022-08-02T01:15:24;20.10;99.90
37518;DHT22;23366;52.498;13.446;2022-08-02T01:26:02;20.20;99.90
37518;DHT22;23366;52.498;13.446;2022-08-02T01:28:41;20.10;99.90
37518;DHT22;23366;52.498;13.446;2022-08-02T01:31:19;20.10;99.90
37518;DHT22;23366;52.498;13.446;2022-08-02T01:34:03;20.10;99.90
37518;DHT22;23366;52.498;13.446;2022-08-02T01:36:35;20.10;99.90
37518;DHT22;23366;52.498;13.446;2022-08-02T01:39:03;20.10;99.90
37518;DHT22;23366;52.498;13.446;2022-08-02T01:41:31;20.10;99.90
37518;DHT22;23366;52.498;13.446;2022-08-02T01:44:00;20.20;99.90
37518;DHT22;23366;52.498;13.446;2022-08-02T01:46:28;20.20;99.90
37518;DHT22;23366;52.498;13.446;2022-08-02T01:48:56;20.20;99.90
37518;DHT22;23366;52.498;13.446;2022-08-02T01:51:24;20.20;99.90
37518;DHT22;23366;52.498;13.446;2022-08-02T01:54:13;20.20;99.90
37518;DHT22;23366;52.498;13.446;2022-08-02T01:56:41;20.10;99.90
37518;DHT22;23366;52.498;13.446;2022-08-02T01:59:12;20.10;99.90
37518;DHT22;23366;52.498;13.446;2022-08-02T02:01:39;20.10;99.90
37518;DHT22;23366;52.498;13.446;2022-08-02T02:04:07;20.10;99.90
37518;DHT22;23366;52.498;13.446;2022-08-02T02:06:35;20.00;99.90
37518;DHT22;23366;52.498;13.446;2022-08-02T02:09:02;20.00;99.90
37518;DHT22;23366;52.498;13.446;2022-08-02T02:11:28;20.00;99.90
37518;DHT22;23366;52.498;13.446;2022-08-02T02:13:57;20.00;99.90
37518;DHT22;23366;52.498;13.446;2022-08-02T02:16:24;20.00;99.90
37518;DHT22;23366;52.498;13.446;2022-08-02T02:18:52;20.00;99.90
37518;DHT22;23366;52.498;13.446;2022-08-02T02:21:19;20.00;99.90
37518;DHT22;23366;52.498;13.446;2022-08-02T02:23:45;20.10;99.90
37518;DHT22;23366;52.498;13.446;2022-08-02T02:26:13;20.10;99.90
37518;DHT22;23366;52.498;13.446;2022-08-02T02:28:41;20.10;99.90
37518;DHT22;23366;52.498;13.446;2022-08-02T02:31:13;20.10;99.90
37518;DHT22;23366;52.498;13.446;2022-08-02T02:33:56;20.10;99.90
37518;DHT22;23366;52.498;13.446;2022-08-02T02:36:23;20.10;99.90
37518;DHT22;23366;52.498;13.446;2022-08-02T02:38:50;20.00;99.90
37518;DHT22;23366;52.498;13.446;2022-08-02T02:41:18;20.00;99.90
37518;DHT22;23366;52.498;13.446;2022-08-02T02:43:45;20.00;99.90
37518;DHT22;23366;52.498;13.446;2022-08-02T02:46:12;20.00;99.80
37518;DHT22;23366;52.498;13.446;2022-08-02T02:48:38;19.90;99.50
37518;DHT22;23366;52.498;13.446;2022-08-02T02:51:05;19.80;99.50
37518;DHT22;23366;52.498;13.446;2022-08-02T02:53:34;19.80;99.70
37518;DHT22;23366;52.498;13.446;2022-08-02T02:56:01;19.90;99.20
37518;DHT22;23366;52.498;13.446;2022-08-02T02:58:27;19.90;97.70
37518;DHT22;23366;52.498;13.446;2022-08-02T03:00:54;19.80;97.30
37518;DHT22;23366;52.498;13.446;2022-08-02T03:03:39;19.80;97.20
37518;DHT22;23366;52.498;13.446;2022-08-02T03:06:05;19.80;96.70
37518;DHT22;23366;52.498;13.446;2022-08-02T03:08:30;19.80;96.80
37518;DHT22;23366;52.498;13.446;2022-08-02T03:10:56;19.80;96.00
37518;DHT22;23366;52.498;13.446;2022-08-02T03:13:25;19.70;95.90
37518;DHT22;23366;52.498;13.446;2022-08-02T03:15:51;19.80;96.30
37518;DHT22;23366;52.498;13.446;2022-08-02T03:18:37;19.80;96.30
37518;DHT22;23366;52.498;13.446;2022-08-02T03:21:05;19.80;95.50
37518;DHT22;23366;52.498;13.446;2022-08-02T03:23:31;19.80;95.00
37518;DHT22;23366;52.498;13.446;2022-08-02T03:25:57;19.90;94.90
37518;DHT22;23366;52.498;13.446;2022-08-02T03:28:23;19.90;94.80
37518;DHT22;23366;52.498;13.446;2022-08-02T03:30:49;19.90;94.90
37518;DHT22;23366;52.498;13.446;2022-08-02T03:33:16;19.90;95.00
37518;DHT22;23366;52.498;13.446;2022-08-02T03:35:42;19.90;95.00
37518;DHT22;23366;52.498;13.446;2022-08-02T03:38:11;19.90;95.00
37518;DHT22;23366;52.498;13.446;2022-08-02T03:40:38;19.90;94.40
37518;DHT22;23366;52.498;13.446;2022-08-02T03:43:04;19.90;94.40
37518;DHT22;23366;52.498;13.446;2022-08-02T03:45:31;19.80;94.80
37518;DHT22;23366;52.498;13.446;2022-08-02T03:47:58;19.70;94.80
37518;DHT22;23366;52.498;13.446;2022-08-02T03:50:24;19.80;95.30
37518;DHT22;23366;52.498;13.446;2022-08-02T03:52:50;19.70;95.20
37518;DHT22;23366;52.498;13.446;2022-08-02T03:55:16;19.70;95.10
37518;DHT22;23366;52.498;13.446;2022-08-02T03:57:43;19.60;95.90
37518;DHT22;23366;52.498;13.446;2022-08-02T04:00:10;19.70;96.10
37518;DHT22;23366;52.498;13.446;2022-08-02T04:02:37;19.70;96.10
37518;DHT22;23366;52.498;13.446;2022-08-02T04:05:03;19.60;96.80
37518;DHT22;23366;52.498;13.446;2022-08-02T04:07:28;19.70;96.50
37518;DHT22;23366;52.498;13.446;2022-08-02T04:09:54;19.80;96.80
37518;DHT22;23366;52.498;13.446;2022-08-02T04:12:20;19.80;96.80
37518;DHT22;23366;52.498;13.446;2022-08-02T04:14:45;19.90;96.50
37518;DHT22;23366;52.498;13.446;2022-08-02T04:17:12;20.00;96.60
37518;DHT22;23366;52.498;13.446;2022-08-02T04:19:49;20.10;96.00
37518;DHT22;23366;52.498;13.446;2022-08-02T04:22:38;20.30;95.70
37518;DHT22;23366;52.498;13.446;2022-08-02T04:25:06;20.40;95.20
37518;DHT22;23366;52.498;13.446;2022-08-02T04:27:34;20.50;94.90
37518;DHT22;23366;52.498;13.446;2022-08-02T04:30:03;20.50;94.40
37518;DHT22;23366;52.498;13.446;2022-08-02T04:32:30;20.40;94.90
37518;DHT22;23366;52.498;13.446;2022-08-02T04:34:56;20.40;94.30
37518;DHT22;23366;52.498;13.446;2022-08-02T04:37:22;20.40;94.80
37518;DHT22;23366;52.498;13.446;2022-08-02T04:39:48;20.40;94.80
37518;DHT22;23366;52.498;13.446;2022-08-02T04:42:21;20.50;95.20
37518;DHT22;23366;52.498;13.446;2022-08-02T04:44:46;20.50;94.60
37518;DHT22;23366;52.498;13.446;2022-08-02T04:47:12;20.50;94.90
37518;DHT22;23366;52.498;13.446;2022-08-02T04:49:41;20.60;95.00
37518;DHT22;23366;52.498;13.446;2022-08-02T04:52:07;20.60;94.80
37518;DHT22;23366;52.498;13.446;2022-08-02T04:54:32;20.60;94.70
37518;DHT22;23366;52.498;13.446;2022-08-02T04:56:58;20.50;94.40
37518;DHT22;23366;52.498;13.446;2022-08-02T04:59:24;20.50;95.00
37518;DHT22;23366;52.498;13.446;2022-08-02T05:01:52;20.50;94.90
37518;DHT22;23366;52.498;13.446;2022-08-02T05:04:17;20.60;94.40
37518;DHT22;23366;52.498;13.446;2022-08-02T05:06:43;20.60;94.80
37518;DHT22;23366;52.498;13.446;2022-08-02T05:09:09;20.60;93.50
37518;DHT22;23366;52.498;13.446;2022-08-02T05:11:34;20.50;92.90
37518;DHT22;23366;52.498;13.446;2022-08-02T05:14:00;20.50;93.10
37518;DHT22;23366;52.498;13.446;2022-08-02T05:16:26;20.50;93.30
37518;DHT22;23366;52.498;13.446;2022-08-02T05:18:52;20.50;93.60
37518;DHT22;23366;52.498;13.446;2022-08-02T05:21:18;20.70;94.30
37518;DHT22;23366;52.498;13.446;2022-08-02T05:23:43;21.00;93.80
37518;DHT22;23366;52.498;13.446;2022-08-02T05:26:09;21.20;93.50
37518;DHT22;23366;52.498;13.446;2022-08-02T05:28:35;21.40;93.00
37518;DHT22;23366;52.498;13.446;2022-08-02T05:31:00;21.60;92.90
37518;DHT22;23366;52.498;13.446;2022-08-02T05:33:26;21.80;91.90
37518;DHT22;23366;52.498;13.446;2022-08-02T05:35:51;22.50;91.00
37518;DHT22;23366;52.498;13.446;2022-08-02T05:38:17;23.00;89.20
37518;DHT22;23366;52.498;13.446;2022-08-02T05:40:43;23.30;86.60
37518;DHT22;23366;52.498;13.446;2022-08-02T05:43:12;23.40;85.90
37518;DHT22;23366;52.498;13.446;2022-08-02T05:45:38;23.60;85.00
37518;DHT22;23366;52.498;13.446;2022-08-02T05:48:04;24.30;83.00
37518;DHT22;23366;52.498;13.446;2022-08-02T05:50:31;25.60;80.70
37518;DHT22;23366;52.498;13.446;2022-08-02T05:53:14;26.90;76.00
37518;DHT22;23366;52.498;13.446;2022-08-02T05:55:48;28.20;71.80
37518;DHT22;23366;52.498;13.446;2022-08-02T06:00:44;30.30;65.80
37518;DHT22;23366;52.498;13.446;2022-08-02T06:03:24;31.10;62.60
37518;DHT22;23366;52.498;13.446;2022-08-02T06:05:58;31.70;60.50
37518;DHT22;23366;52.498;13.446;2022-08-02T06:08:31;32.00;59.20
37518;DHT22;23366;52.498;13.446;2022-08-02T06:11:00;32.00;59.10
37518;DHT22;23366;52.498;13.446;2022-08-02T06:13:26;32.20;57.90
37518;DHT22;23366;52.498;13.446;2022-08-02T06:15:52;32.30;57.60
37518;DHT22;23366;52.498;13.446;2022-08-02T06:18:23;32.30;56.60
37518;DHT22;23366;52.498;13.446;2022-08-02T06:20:49;32.20;56.60
37518;DHT22;23366;52.498;13.446;2022-08-02T06:23:16;32.40;56.00
37518;DHT22;23366;52.498;13.446;2022-08-02T06:25:46;32.60;56.30
37518;DHT22;23366;52.498;13.446;2022-08-02T06:28:15;32.90;55.20
37518;DHT22;23366;52.498;13.446;2022-08-02T06:30:42;32.90;55.50
37518;DHT22;23366;52.498;13.446;2022-08-02T06:33:09;32.70;55.30
37518;DHT22;23366;52.498;13.446;2022-08-02T06:38:48;32.70;55.00
37518;DHT22;23366;52.498;13.446;2022-08-02T06:41:17;33.00;54.80
37518;DHT22;23366;52.498;13.446;2022-08-02T06:43:46;33.10;54.10
37518;DHT22;23366;52.498;13.446;2022-08-02T06:46:13;33.40;54.90
37518;DHT22;23366;52.498;13.446;2022-08-02T06:48:39;33.40;53.60
37518;DHT22;23366;52.498;13.446;2022-08-02T06:51:05;33.20;54.10
37518;DHT22;23366;52.498;13.446;2022-08-02T06:53:31;32.90;54.60
37518;DHT22;23366;52.498;13.446;2022-08-02T06:55:57;32.90;55.20
37518;DHT22;23366;52.498;13.446;2022-08-02T06:58:23;33.00;55.20
37518;DHT22;23366;52.498;13.446;2022-08-02T07:00:48;33.20;54.20
37518;DHT22;23366;52.498;13.446;2022-08-02T07:03:14;33.50;54.60
37518;DHT22;23366;52.498;13.446;2022-08-02T07:05:40;33.90;54.30
37518;DHT22;23366;52.498;13.446;2022-08-02T07:08:07;34.40;53.20
37518;DHT22;23366;52.498;13.446;2022-08-02T07:10:33;35.00;52.70
37518;DHT22;23366;52.498;13.446;2022-08-02T07:12:59;35.70;51.20
37518;DHT22;23366;52.498;13.446;2022-08-02T07:15:25;36.20;50.70
37518;DHT22;23366;52.498;13.446;2022-08-02T07:17:50;36.70;49.60
37518;DHT22;23366;52.498;13.446;2022-08-02T07:20:16;37.10;49.50
37518;DHT22;23366;52.498;13.446;2022-08-02T07:22:41;37.20;48.70
37518;DHT22;23366;52.498;13.446;2022-08-02T07:25:07;37.00;48.80
37518;DHT22;23366;52.498;13.446;2022-08-02T07:27:33;36.70;49.60
37518;DHT22;23366;52.498;13.446;2022-08-02T07:29:59;36.40;49.50
37518;DHT22;23366;52.498;13.446;2022-08-02T07:32:28;36.40;48.80
37518;DHT22;23366;52.498;13.446;2022-08-02T07:34:55;36.30;49.10
37518;DHT22;23366;52.498;13.446;2022-08-02T07:37:26;36.50;48.80
37518;DHT22;23366;52.498;13.446;2022-08-02T07:39:53;36.90;47.90
37518;DHT22;23366;52.498;13.446;2022-08-02T07:42:18;37.70;48.60
37518;DHT22;23366;52.498;13.446;2022-08-02T07:44:44;38.80;46.90
37518;DHT22;23366;52.498;13.446;2022-08-02T07:47:10;40.30;46.40
37518;DHT22;23366;52.498;13.446;2022-08-02T07:49:35;41.40;44.30
37518;DHT22;23366;52.498;13.446;2022-08-02T07:52:01;42.30;43.00
37518;DHT22;23366;52.498;13.446;2022-08-02T07:54:26;43.60;42.80
37518;DHT22;23366;52.498;13.446;2022-08-02T07:56:52;45.00;40.80
37518;DHT22;23366;52.498;13.446;2022-08-02T07:59:19;46.20;39.70
37518;DHT22;23366;52.498;13.446;2022-08-02T08:01:45;47.50;38.20
37518;DHT22;23366;52.498;13.446;2022-08-02T08:04:11;48.80;37.10
37518;DHT22;23366;52.498;13.446;2022-08-02T08:06:36;50.10;36.50
37518;DHT22;23366;52.498;13.446;2022-08-02T08:09:02;51.10;34.60
37518;DHT22;23366;52.498;13.446;2022-08-02T08:11:28;52.00;34.40
37518;DHT22;23366;52.498;13.446;2022-08-02T08:13:54;52.70;34.30
37518;DHT22;23366;52.498;13.446;2022-08-02T08:16:19;53.30;33.10
37518;DHT22;23366;52.498;13.446;2022-08-02T08:18:46;53.50;32.50
37518;DHT22;23366;52.498;13.446;2022-08-02T08:21:12;53.80;32.70
37518;DHT22;23366;52.498;13.446;2022-08-02T08:23:37;53.80;32.60
37518;DHT22;23366;52.498;13.446;2022-08-02T08:26:03;53.60;32.20
37518;DHT22;23366;52.498;13.446;2022-08-02T08:28:29;53.20;32.40
37518;DHT22;23366;52.498;13.446;2022-08-02T08:30:54;52.30;32.10
37518;DHT22;23366;52.498;13.446;2022-08-02T08:33:20;51.60;33.00
37518;DHT22;23366;52.498;13.446;2022-08-02T08:35:46;50.90;33.30
37518;DHT22;23366;52.498;13.446;2022-08-02T08:38:12;50.30;33.00
37518;DHT22;23366;52.498;13.446;2022-08-02T08:40:38;49.60;33.10
37518;DHT22;23366;52.498;13.446;2022-08-02T08:43:04;48.70;33.30
37518;DHT22;23366;52.498;13.446;2022-08-02T08:45:30;48.00;34.20
37518;DHT22;23366;52.498;13.446;2022-08-02T08:48:00;47.60;34.90
37518;DHT22;23366;52.498;13.446;2022-08-02T08:50:29;47.10;34.70
37518;DHT22;23366;52.498;13.446;2022-08-02T08:53:02;46.80;35.20
37518;DHT22;23366;52.498;13.446;2022-08-02T08:55:28;46.30;35.10
37518;DHT22;23366;52.498;13.446;2022-08-02T08:57:54;46.00;35.00
37518;DHT22;23366;52.498;13.446;2022-08-02T09:00:21;45.90;35.30
37518;DHT22;23366;52.498;13.446;2022-08-02T09:02:48;46.30;36.10
37518;DHT22;23366;52.498;13.446;2022-08-02T09:05:16;46.80;35.20
37518;DHT22;23366;52.498;13.446;2022-08-02T09:07:42;46.90;34.30
37518;DHT22;23366;52.498;13.446;2022-08-02T09:10:30;46.20;34.70
37518;DHT22;23366;52.498;13.446;2022-08-02T09:15:39;43.70;36.20
37518;DHT22;23366;52.498;13.446;2022-08-02T09:18:06;43.80;36.20
37518;DHT22;23366;52.498;13.446;2022-08-02T09:20:33;44.40;36.60
37518;DHT22;23366;52.498;13.446;2022-08-02T09:23:09;45.00;36.40
37518;DHT22;23366;52.498;13.446;2022-08-02T09:25:36;45.10;35.20
37518;DHT22;23366;52.498;13.446;2022-08-02T09:28:03;45.10;35.40
37518;DHT22;23366;52.498;13.446;2022-08-02T09:30:30;44.50;35.90
37518;DHT22;23366;52.498;13.446;2022-08-02T09:32:56;44.10;36.40
37518;DHT22;23366;52.498;13.446;2022-08-02T09:35:38;43.20;36.90
37518;DHT22;23366;52.498;13.446;2022-08-02T09:38:11;41.80;37.10
37518;DHT22;23366;52.498;13.446;2022-08-02T09:40:38;40.60;38.40
37518;DHT22;23366;52.498;13.446;2022-08-02T09:43:05;39.50;39.30
37518;DHT22;23366;52.498;13.446;2022-08-02T09:45:33;38.50;39.80
37518;DHT22;23366;52.498;13.446;2022-08-02T09:48:06;37.40;41.40
37518;DHT22;23366;52.498;13.446;2022-08-02T09:50:36;36.50;42.40
37518;DHT22;23366;52.498;13.446;2022-08-02T09:53:03;35.70;43.00
37518;DHT22;23366;52.498;13.446;2022-08-02T09:55:29;35.20;43.80
37518;DHT22;23366;52.498;13.446;2022-08-02T09:57:55;34.90;44.10
37518;DHT22;23366;52.498;13.446;2022-08-02T10:00:21;34.40;44.30
37518;DHT22;23366;52.498;13.446;2022-08-02T10:03:06;33.70;44.60
37518;DHT22;23366;52.498;13.446;2022-08-02T10:05:53;33.20;45.20
37518;DHT22;23366;52.498;13.446;2022-08-02T10:08:20;33.00;46.10
37518;DHT22;23366;52.498;13.446;2022-08-02T10:10:46;32.80;46.30
37518;DHT22;23366;52.498;13.446;2022-08-02T10:13:12;32.60;46.80
37518;DHT22;23366;52.498;13.446;2022-08-02T10:15:38;32.30;46.60
37518;DHT22;23366;52.498;13.446;2022-08-02T10:18:05;32.10;47.00
37518;DHT22;23366;52.498;13.446;2022-08-02T10:20:37;32.00;47.40
37518;DHT22;23366;52.498;13.446;2022-08-02T10:23:05;31.90;47.30
37518;DHT22;23366;52.498;13.446;2022-08-02T10:25:35;31.90;47.60
37518;DHT22;23366;52.498;13.446;2022-08-02T10:28:00;31.90;47.70
37518;DHT22;23366;52.498;13.446;2022-08-02T10:30:28;31.90;47.50
37518;DHT22;23366;52.498;13.446;2022-08-02T10:32:56;31.80;47.80
37518;DHT22;23366;52.498;13.446;2022-08-02T10:35:23;31.80;48.40
37518;DHT22;23366;52.498;13.446;2022-08-02T10:37:53;31.70;48.10
37518;DHT22;23366;52.498;13.446;2022-08-02T10:40:19;31.50;48.30
37518;DHT22;23366;52.498;13.446;2022-08-02T10:42:57;31.20;48.40
37518;DHT22;23366;52.498;13.446;2022-08-02T10:45:25;31.00;49.10
37518;DHT22;23366;52.498;13.446;2022-08-02T10:48:03;31.00;49.30
37518;DHT22;23366;52.498;13.446;2022-08-02T10:53:19;31.00;49.70
37518;DHT22;23366;52.498;13.446;2022-08-02T10:55:46;31.10;49.50
37518;DHT22;23366;52.498;13.446;2022-08-02T10:58:21;31.30;49.40
37518;DHT22;23366;52.498;13.446;2022-08-02T11:00:47;31.40;49.10
37518;DHT22;23366;52.498;13.446;2022-08-02T11:06:00;31.40;48.40
37518;DHT22;23366;52.498;13.446;2022-08-02T11:08:27;31.30;50.00
37518;DHT22;23366;52.498;13.446;2022-08-02T11:10:58;31.10;49.00
37518;DHT22;23366;52.498;13.446;2022-08-02T11:13:24;31.10;50.00
37518;DHT22;23366;52.498;13.446;2022-08-02T11:16:01;31.10;50.20
37518;DHT22;23366;52.498;13.446;2022-08-02T11:21:25;30.80;49.60
37518;DHT22;23366;52.498;13.446;2022-08-02T11:23:52;30.60;49.60
37518;DHT22;23366;52.498;13.446;2022-08-02T11:28:59;29.90;50.00
37518;DHT22;23366;52.498;13.446;2022-08-02T11:31:26;29.70;50.70
37518;DHT22;23366;52.498;13.446;2022-08-02T11:33:52;29.60;51.00
37518;DHT22;23366;52.498;13.446;2022-08-02T11:36:19;29.40;51.20
37518;DHT22;23366;52.498;13.446;2022-08-02T11:38:45;29.30;51.30
37518;DHT22;23366;52.498;13.446;2022-08-02T11:41:20;29.10;52.60
37518;DHT22;23366;52.498;13.446;2022-08-02T11:43:46;29.10;52.60
37518;DHT22;23366;52.498;13.446;2022-08-02T11:46:18;29.00;51.80
37518;DHT22;23366;52.498;13.446;2022-08-02T11:48:43;28.90;52.50
37518;DHT22;23366;52.498;13.446;2022-08-02T11:51:16;28.80;52.40
37518;DHT22;23366;52.498;13.446;2022-08-02T11:53:52;28.80;52.70
37518;DHT22;23366;52.498;13.446;2022-08-02T11:56:25;28.70;53.30
37518;DHT22;23366;52.498;13.446;2022-08-02T11:59:08;28.80;52.60
37518;DHT22;23366;52.498;13.446;2022-08-02T12:01:36;28.70;52.60
37518;DHT22;23366;52.498;13.446;2022-08-02T12:04:03;28.70;52.00
37518;DHT22;23366;52.498;13.446;2022-08-02T12:06:30;28.70;51.40
37518;DHT22;23366;52.498;13.446;2022-08-02T12:09:03;28.60;51.90
37518;DHT22;23366;52.498;13.446;2022-08-02T12:11:29;28.70;52.20
37518;DHT22;23366;52.498;13.446;2022-08-02T12:13:55;28.60;51.90
37518;DHT22;23366;52.498;13.446;2022-08-02T12:16:22;28.60;51.90
37518;DHT22;23366;52.498;13.446;2022-08-02T12:19:06;28.50;51.30
37518;DHT22;23366;52.498;13.446;2022-08-02T12:21:47;28.20;52.00
37518;DHT22;23366;52.498;13.446;2022-08-02T12:24:25;28.10;52.40
37518;DHT22;23366;52.498;13.446;2022-08-02T12:26:51;28.10;52.40
37518;DHT22;23366;52.498;13.446;2022-08-02T12:29:16;28.10;52.60
37518;DHT22;23366;52.498;13.446;2022-08-02T12:31:53;27.90;52.00
37518;DHT22;23366;52.498;13.446;2022-08-02T12:34:18;27.80;52.30
37518;DHT22;23366;52.498;13.446;2022-08-02T12:37:03;27.80;53.20
37518;DHT22;23366;52.498;13.446;2022-08-02T12:39:41;27.70;53.10
37518;DHT22;23366;52.498;13.446;2022-08-02T12:42:10;27.70;52.90
37518;DHT22;23366;52.498;13.446;2022-08-02T12:44:48;27.70;52.90
37518;DHT22;23366;52.498;13.446;2022-08-02T12:47:14;27.80;52.80
37518;DHT22;23366;52.498;13.446;2022-08-02T12:49:40;27.80;52.40
37518;DHT22;23366;52.498;13.446;2022-08-02T12:52:23;27.80;51.60
37518;DHT22;23366;52.498;13.446;2022-08-02T12:54:49;27.80;51.50
37518;DHT22;23366;52.498;13.446;2022-08-02T12:57:18;27.80;51.40
37518;DHT22;23366;52.498;13.446;2022-08-02T12:59:50;27.90;51.10
37518;DHT22;23366;52.498;13.446;2022-08-02T13:02:16;27.80;51.00
37518;DHT22;23366;52.498;13.446;2022-08-02T13:04:42;27.80;51.20
37518;DHT22;23366;52.498;13.446;2022-08-02T13:07:08;27.70;51.80
37518;DHT22;23366;52.498;13.446;2022-08-02T13:09:36;27.70;52.20
37518;DHT22;23366;52.498;13.446;2022-08-02T13:12:02;27.70;52.60
37518;DHT22;23366;52.498;13.446;2022-08-02T13:14:28;27.70;52.70
37518;DHT22;23366;52.498;13.446;2022-08-02T13:16:54;27.70;52.40
37518;DHT22;23366;52.498;13.446;2022-08-02T13:19:20;27.60;53.10
37518;DHT22;23366;52.498;13.446;2022-08-02T13:21:45;27.70;53.40
37518;DHT22;23366;52.498;13.446;2022-08-02T13:24:13;27.70;52.80
37518;DHT22;23366;52.498;13.446;2022-08-02T13:26:42;27.70;53.20
37518;DHT22;23366;52.498;13.446;2022-08-02T13:29:09;27.60;54.00
37518;DHT22;23366;52.498;13.446;2022-08-02T13:31:35;27.60;53.20
37518;DHT22;23366;52.498;13.446;2022-08-02T13:34:06;27.60;53.80
37518;DHT22;23366;52.498;13.446;2022-08-02T13:36:33;27.60;53.90
37518;DHT22;23366;52.498;13.446;2022-08-02T13:39:00;27.60;52.80
37518;DHT22;23366;52.498;13.446;2022-08-02T13:41:26;27.70;52.20
37518;DHT22;23366;52.498;13.446;2022-08-02T13:43:52;27.70;52.30
37518;DHT22;23366;52.498;13.446;2022-08-02T13:46:17;27.70;51.80
37518;DHT22;23366;52.498;13.446;2022-08-02T13:48:44;27.80;52.40
37518;DHT22;23366;52.498;13.446;2022-08-02T13:51:10;27.80;51.90
37518;DHT22;23366;52.498;13.446;2022-08-02T13:53:38;27.80;51.90
37518;DHT22;23366;52.498;13.446;2022-08-02T13:56:04;27.80;51.70
37518;DHT22;23366;52.498;13.446;2022-08-02T13:58:30;27.70;51.60
37518;DHT22;23366;52.498;13.446;2022-08-02T14:00:56;27.70;52.30
37518;DHT22;23366;52.498;13.446;2022-08-02T14:03:22;27.70;52.50
37518;DHT22;23366;52.498;13.446;2022-08-02T14:05:48;27.60;52.00
37518;DHT22;23366;52.498;13.446;2022-08-02T14:08:15;27.60;52.90
37518;DHT22;23366;52.498;13.446;2022-08-02T14:10:40;27.60;52.30
37518;DHT22;23366;52.498;13.446;2022-08-02T14:13:06;27.70;52.50
37518;DHT22;23366;52.498;13.446;2022-08-02T14:15:32;27.70;53.10
37518;DHT22;23366;52.498;13.446;2022-08-02T14:17:57;27.70;53.30
37518;DHT22;23366;52.498;13.446;2022-08-02T14:20:23;27.90;53.20
37518;DHT22;23366;52.498;13.446;2022-08-02T14:22:48;28.00;53.00
37518;DHT22;23366;52.498;13.446;2022-08-02T14:25:14;28.10;52.70
37518;DHT22;23366;52.498;13.446;2022-08-02T14:27:39;28.10;52.60
37518;DHT22;23366;52.498;13.446;2022-08-02T14:30:05;28.00;52.00
37518;DHT22;23366;52.498;13.446;2022-08-02T14:32:31;28.10;52.00
37518;DHT22;23366;52.498;13.446;2022-08-02T14:34:57;28.00;51.60
37518;DHT22;23366;52.498;13.446;2022-08-02T14:37:22;28.10;51.70
37518;DHT22;23366;52.498;13.446;2022-08-02T14:39:48;27.90;51.00
37518;DHT22;23366;52.498;13.446;2022-08-02T14:42:13;27.90;50.80
37518;DHT22;23366;52.498;13.446;2022-08-02T14:44:39;27.80;50.60
37518;DHT22;23366;52.498;13.446;2022-08-02T14:47:05;27.80;50.70
37518;DHT22;23366;52.498;13.446;2022-08-02T14:49:30;27.90;50.80
37518;DHT22;23366;52.498;13.446;2022-08-02T14:51:56;28.00;51.00
37518;DHT22;23366;52.498;13.446;2022-08-02T14:54:23;28.00;50.40
37518;DHT22;23366;52.498;13.446;2022-08-02T14:56:51;28.00;50.20
37518;DHT22;23366;52.498;13.446;2022-08-02T14:59:16;28.10;50.60
37518;DHT22;23366;52.498;13.446;2022-08-02T15:01:42;28.10;50.20
37518;DHT22;23366;52.498;13.446;2022-08-02T15:04:07;28.20;50.90
37518;DHT22;23366;52.498;13.446;2022-08-02T15:06:33;28.30;51.90
37518;DHT22;23366;52.498;13.446;2022-08-02T15:08:59;28.40;51.60
37518;DHT22;23366;52.498;13.446;2022-08-02T15:11:25;28.40;51.70
37518;DHT22;23366;52.498;13.446;2022-08-02T15:13:51;28.40;51.40
37518;DHT22;23366;52.498;13.446;2022-08-02T15:16:16;28.40;51.40
37518;DHT22;23366;52.498;13.446;2022-08-02T15:18:43;28.40;51.80
37518;DHT22;23366;52.498;13.446;2022-08-02T15:21:08;28.40;51.70
37518;DHT22;23366;52.498;13.446;2022-08-02T15:23:35;28.40;52.00
37518;DHT22;23366;52.498;13.446;2022-08-02T15:26:01;28.30;51.70
37518;DHT22;23366;52.498;13.446;2022-08-02T15:28:26;28.20;51.20
37518;DHT22;23366;52.498;13.446;2022-08-02T15:30:54;28.20;51.20
37518;DHT22;23366;52.498;13.446;2022-08-02T15:33:20;28.20;51.70
37518;DHT22;23366;52.498;13.446;2022-08-02T15:35:46;28.20;51.90
37518;DHT22;23366;52.498;13.446;2022-08-02T15:38:11;28.30;50.60
37518;DHT22;23366;52.498;13.446;2022-08-02T15:40:37;28.30;51.40
37518;DHT22;23366;52.498;13.446;2022-08-02T15:43:02;28.30;51.80
37518;DHT22;23366;52.498;13.446;2022-08-02T15:45:28;28.40;52.00
37518;DHT22;23366;52.498;13.446;2022-08-02T15:47:53;28.40;52.00